North Platte Regional Airport Lee Bird Field
KLBF : now visible

Aeroporto :











RITROVATECI SU...

 
LOGIN :

Iscrizione | Disclaimer

   EN    FR    IT 

 









Sommario :    VFR   VFR Marginale   IFR   IFR Intensivo   IFR Molto Intensivo
Visibilità : 
Base nubi : 
>= 8 km
>= 3000ft
5 / 8 km
1000 / 3000 ft
1500m / 5 km
500 / 1000 ft
800 / 1500m
200 / 500 ft
< 800m
< 200 ft
Simboli :   Temporali  Nebbia  Neve Forte  Precipitazioni Forti  Vento > 20 kt






- Altitudine del aeroporto : 2777 ft
- Codice IATA : LBF


KLBF - North Platte Regional Lee Bird Field

ULTIMO METAR :
  • 200953Z AUTO 00000KT 10SM OVC001 M21/M23 A3064 RMK AO2 SLP441 T12061233

METARs OBSOLETI :
  • 200912Z AUTO 34005KT 8SM BKN003 M19/M23 A3065 RMK AO2 T11941228
  • 200853Z AUTO 33005KT 10SM CLR M20/M23 A3065 RMK AO2 SLP442 I1000 I3000 T12001233 53003
  • 200753Z AUTO 34004KT 10SM FEW002 M21/M25 A3065 RMK AO2 SLP442 T12061250
  • 200729Z AUTO 35004KT 8SM SCT001 M22/M26 A3065 RMK AO2 T12171256

TAF KLBF
Valido dal 20 a 10 ore il 21 a 06 ore UTC


201005Z 2010/2106 34005KT 6SM BR BKN003
TEMPO 2010/2012 2SM BR OVC001
FM201200 23009KT P6SM FEW250
FM210000 20006KT P6SM SKC



MetMap, La meteo Aeronautica in un colpo d'occhio ! - Copyright ORBIFLY Dicembre 2007 - Disclaimer

ORBIFLY MET'MAP TEAM :

Programmazione e sviluppo : Alexandra Zaïnal
Concezione : Baudouin d'Aumeries
Aiuto per la programmazione : Marc-Olivier Méhu
Supporto tecnico e logistico : Manuel Goepfert
Aiuto per la traduzione : Arnaldo La Scala

Contatto : metmap@orbifly.com




FONTI E CREDITI :

   NOAA       Earth
Advisory